createdAt,value
2023-04-27T00:01:14.979Z,3.33
2023-04-27T00:03:46.101Z,4.30
2023-04-27T00:06:13.221Z,7.50
2023-04-27T00:08:39.847Z,5.87
2023-04-27T00:11:07.280Z,3.47
2023-04-27T00:13:33.894Z,4.57
2023-04-27T00:16:03.447Z,5.00
2023-04-27T00:18:31.123Z,4.53
2023-04-27T00:20:57.968Z,4.23
2023-04-27T00:23:24.549Z,3.20
2023-04-27T00:25:51.223Z,7.10
2023-04-27T00:28:17.799Z,4.47
2023-04-27T00:30:45.204Z,7.90
2023-04-27T00:33:11.866Z,6.10
2023-04-27T00:35:41.439Z,3.53
2023-04-27T00:38:08.018Z,8.13
2023-04-27T00:40:34.593Z,7.23
2023-04-27T00:43:01.219Z,5.90
2023-04-27T00:45:27.986Z,4.27
2023-04-27T00:47:54.661Z,6.20
2023-04-27T00:50:24.715Z,5.13
2023-04-27T00:52:51.287Z,5.43
2023-04-27T00:55:17.893Z,7.40
2023-04-27T00:57:44.492Z,6.07
2023-04-27T01:00:11.828Z,3.20
2023-04-27T01:02:38.625Z,5.53
2023-04-27T01:05:05.910Z,8.13
2023-04-27T01:07:32.502Z,7.40
2023-04-27T01:09:59.150Z,5.97
2023-04-27T01:12:26.259Z,4.13
2023-04-27T01:14:53.623Z,5.63
2023-04-27T01:17:20.768Z,5.87
2023-04-27T01:19:47.399Z,6.67
2023-04-27T01:22:15.394Z,8.50
2023-04-27T01:24:41.993Z,4.70
2023-04-27T01:27:12.924Z,3.27
2023-04-27T01:29:40.258Z,7.00
2023-04-27T01:32:08.720Z,8.83
2023-04-27T01:34:35.717Z,7.13
2023-04-27T01:37:02.862Z,6.37
2023-04-27T01:39:29.492Z,7.53
2023-04-27T01:41:58.393Z,7.57
2023-04-27T02:17:02.589Z,7.47
2023-04-27T02:19:30.106Z,4.80
2023-04-27T02:21:56.790Z,5.77
2023-04-27T02:24:24.361Z,7.10
2023-04-27T02:26:51.110Z,6.43
2023-04-27T02:29:18.655Z,6.63
2023-04-27T02:31:45.803Z,8.00
2023-04-27T02:34:13.105Z,5.63
2023-04-27T02:36:39.758Z,4.33
2023-04-27T02:39:06.429Z,5.90
2023-04-27T02:41:33.016Z,4.57
2023-04-27T02:44:00.517Z,7.33
2023-04-27T02:46:27.538Z,6.93
2023-04-27T02:48:58.047Z,5.87
2023-04-27T02:51:24.664Z,8.40
2023-04-27T02:53:52.834Z,6.00
2023-04-27T02:56:19.478Z,6.73
2023-04-27T02:58:46.092Z,8.93
2023-04-27T03:01:13.065Z,6.57
2023-04-27T03:03:39.987Z,5.77
2023-04-27T03:06:07.207Z,8.53
2023-04-27T03:08:33.834Z,13.00
2023-04-27T03:11:00.595Z,9.97
2023-04-27T03:13:28.488Z,8.20
2023-04-27T03:15:56.128Z,7.07
2023-04-27T03:18:23.037Z,7.93
2023-04-27T03:20:49.816Z,8.67
2023-04-27T03:23:16.468Z,6.57
2023-04-27T03:25:43.131Z,8.20
2023-04-27T03:28:09.697Z,10.70
2023-04-27T03:30:40.637Z,7.63
2023-04-27T03:33:07.448Z,8.33
2023-04-27T03:35:34.217Z,9.77
2023-04-27T03:38:02.191Z,8.13
2023-04-27T03:40:29.373Z,9.73
2023-04-27T03:42:57.542Z,5.77
2023-04-27T03:45:27.164Z,10.40
2023-04-27T03:47:54.013Z,7.13
2023-04-27T03:50:20.772Z,8.53
2023-04-27T03:52:50.073Z,8.90
2023-04-27T03:55:19.126Z,6.57
2023-04-27T03:57:45.886Z,5.50
2023-04-27T04:00:13.933Z,6.23
2023-04-27T04:02:41.245Z,6.67
2023-04-27T04:05:09.036Z,13.00
2023-04-27T04:07:35.700Z,7.30
2023-04-27T04:10:02.649Z,7.07
2023-04-27T04:12:29.797Z,7.27
2023-04-27T04:14:56.610Z,8.87
2023-04-27T04:17:23.451Z,9.40
2023-04-27T04:19:51.479Z,6.67
2023-04-27T04:22:18.914Z,5.47
2023-04-27T04:24:45.956Z,8.63
2023-04-27T04:27:12.600Z,8.80
2023-04-27T04:29:39.406Z,6.63
2023-04-27T04:32:07.551Z,8.17
2023-04-27T04:34:34.476Z,8.80
2023-04-27T04:37:02.107Z,6.40
2023-04-27T04:39:33.387Z,5.07
2023-04-27T04:42:00.125Z,3.63
2023-04-27T04:44:29.935Z,6.07
2023-04-27T04:46:57.682Z,9.07
2023-04-27T04:49:26.346Z,8.70
2023-04-27T04:51:52.972Z,4.63
2023-04-27T04:54:19.575Z,5.37
2023-04-27T04:56:48.641Z,6.90
2023-04-27T04:59:15.459Z,5.57
2023-04-27T05:01:42.307Z,6.23
2023-04-27T05:04:09.179Z,9.50
2023-04-27T05:06:39.494Z,7.57
2023-04-27T05:09:06.667Z,8.77
2023-04-27T05:11:34.931Z,7.37
2023-04-27T05:14:01.667Z,5.10
2023-04-27T05:16:28.528Z,6.80
2023-04-27T05:18:56.123Z,8.63
2023-04-27T05:21:22.824Z,8.47
2023-04-27T05:23:49.638Z,6.83
2023-04-27T05:26:16.896Z,6.33
2023-04-27T05:28:44.540Z,8.70
2023-04-27T05:31:11.296Z,5.60
2023-04-27T05:33:38.135Z,5.20
2023-04-27T05:36:04.990Z,7.73
2023-04-27T05:38:33.375Z,7.00
2023-04-27T05:41:01.232Z,7.60
2023-04-27T05:43:27.834Z,6.43
2023-04-27T05:45:54.469Z,4.57
2023-04-27T05:48:21.244Z,4.57
2023-04-27T05:50:48.384Z,6.33
2023-04-27T05:53:15.017Z,3.93
2023-04-27T05:55:43.014Z,6.43
2023-04-27T05:58:10.754Z,8.10
2023-04-27T06:00:38.464Z,6.17
2023-04-27T06:03:06.857Z,11.13
2023-04-27T06:05:34.588Z,4.23
2023-04-27T06:08:01.725Z,7.07
2023-04-27T06:10:28.742Z,6.13
2023-04-27T06:12:55.923Z,5.03
2023-04-27T06:15:22.518Z,4.13
2023-04-27T06:17:49.272Z,7.37
2023-04-27T06:20:15.939Z,5.67
2023-04-27T06:22:42.573Z,8.23
2023-04-27T06:25:13.560Z,7.23
2023-04-27T06:27:41.476Z,6.37
2023-04-27T06:30:08.357Z,6.50
2023-04-27T06:32:35.953Z,6.33
2023-04-27T06:35:02.615Z,6.37
2023-04-27T06:37:29.275Z,7.90
2023-04-27T06:39:56.357Z,6.00
2023-04-27T06:42:23.092Z,6.77
2023-04-27T06:44:49.806Z,4.60
2023-04-27T06:47:16.570Z,8.37
2023-04-27T06:49:43.176Z,7.10
2023-04-27T06:52:10.810Z,4.27
2023-04-27T06:54:37.717Z,7.10
2023-04-27T06:57:06.780Z,6.20
2023-04-27T06:59:33.403Z,6.30
2023-04-27T07:02:02.278Z,5.87
2023-04-27T07:04:29.423Z,5.10
2023-04-27T07:06:56.490Z,4.10
2023-04-27T07:09:27.524Z,6.23
2023-04-27T07:11:54.867Z,5.70
2023-04-27T07:14:21.601Z,6.73
2023-04-27T07:16:50.338Z,6.87
2023-04-27T07:19:17.143Z,5.37
2023-04-27T07:21:43.875Z,4.50
2023-04-27T07:24:10.668Z,8.93
2023-04-27T07:26:37.717Z,5.40
2023-04-27T07:29:18.876Z,4.20
2023-04-27T07:31:53.085Z,4.03
2023-04-27T07:34:20.385Z,2.97
2023-04-27T07:36:47.031Z,4.67
2023-04-27T07:39:15.145Z,2.17
2023-04-27T07:41:42.101Z,3.83
2023-04-27T07:44:09.400Z,3.67
2023-04-27T07:46:38.605Z,5.93
2023-04-27T07:49:05.730Z,4.30
2023-04-27T07:51:34.661Z,3.07
2023-04-27T07:54:02.733Z,2.90
2023-04-27T07:56:30.287Z,3.80
2023-04-27T07:58:56.998Z,4.73
2023-04-27T08:01:25.199Z,2.87
2023-04-27T08:03:52.069Z,4.07
2023-04-27T08:06:20.142Z,4.47
2023-04-27T08:08:46.938Z,3.47
2023-04-27T08:11:13.615Z,3.50
2023-04-27T08:13:40.240Z,1.63
2023-04-27T08:16:09.059Z,2.07
2023-04-27T08:18:36.312Z,2.30
2023-04-27T08:21:04.379Z,2.13
2023-04-27T08:23:33.036Z,1.50
2023-04-27T08:25:59.768Z,1.37
2023-04-27T08:28:26.973Z,1.37
2023-04-27T08:30:53.659Z,2.93
2023-04-27T08:33:20.467Z,3.03
2023-04-27T08:35:47.122Z,3.83
2023-04-27T08:38:13.834Z,2.17
2023-04-27T08:40:43.929Z,3.67
2023-04-27T08:43:10.778Z,3.47
2023-04-27T08:45:37.822Z,3.57
2023-04-27T08:48:04.907Z,2.77
2023-04-27T08:50:31.680Z,4.17
2023-04-27T08:53:00.001Z,4.23
2023-04-27T08:55:27.006Z,3.30
2023-04-27T08:57:54.424Z,4.03
2023-04-27T09:00:21.196Z,3.00
2023-04-27T09:02:48.310Z,3.83
2023-04-27T09:05:16.020Z,5.73
2023-04-27T09:07:43.651Z,2.70
2023-04-27T09:10:10.629Z,3.70
2023-04-27T09:12:37.294Z,11.93
2023-04-27T09:15:09.330Z,6.00
2023-04-27T09:17:38.973Z,7.10
2023-04-27T09:20:09.183Z,8.00
2023-04-27T09:22:46.306Z,5.63
2023-04-27T09:25:28.040Z,6.13
2023-04-27T09:27:55.976Z,3.23
2023-04-27T09:30:22.584Z,5.53
2023-04-27T09:32:53.643Z,3.87
2023-04-27T09:35:24.413Z,5.23
2023-04-27T09:37:52.951Z,4.93
2023-04-27T09:40:20.242Z,2.60
2023-04-27T09:42:47.122Z,3.13
2023-04-27T09:45:13.724Z,2.97
2023-04-27T09:47:40.417Z,3.83
2023-04-27T09:50:07.254Z,2.67
2023-04-27T09:52:33.946Z,3.50
2023-04-27T09:55:01.492Z,4.33
2023-04-27T09:57:45.055Z,3.50
2023-04-27T10:00:19.530Z,4.50
2023-04-27T10:02:59.834Z,4.30
2023-04-27T10:05:34.386Z,4.67
2023-04-27T10:08:01.182Z,4.90
2023-04-27T10:10:28.578Z,3.27
2023-04-27T10:12:56.519Z,1.43
2023-04-27T10:15:26.203Z,3.23
2023-04-27T10:18:00.051Z,2.20
2023-04-27T10:20:30.502Z,2.47
2023-04-27T10:22:58.872Z,1.50
2023-04-27T10:25:27.022Z,1.50
2023-04-27T10:27:53.756Z,3.37
2023-04-27T10:30:20.790Z,2.97
2023-04-27T10:32:58.484Z,3.07
2023-04-27T10:35:44.486Z,2.70
2023-04-27T10:38:18.143Z,2.20
2023-04-27T10:40:46.206Z,2.83
2023-04-27T10:43:13.903Z,2.60
2023-04-27T10:45:43.129Z,3.20
2023-04-27T10:48:09.882Z,4.23
2023-04-27T10:50:37.522Z,4.63
2023-04-27T10:53:04.948Z,4.23
2023-04-27T10:55:31.809Z,4.27
2023-04-27T10:57:59.206Z,2.93
2023-04-27T11:00:26.963Z,4.47
2023-04-27T11:02:54.131Z,3.90
2023-04-27T11:05:22.179Z,2.77
2023-04-27T11:07:50.068Z,3.37
2023-04-27T11:10:20.194Z,3.20
2023-04-27T11:12:47.078Z,4.80
2023-04-27T11:15:14.305Z,2.93
2023-04-27T11:17:41.803Z,2.90
2023-04-27T11:20:08.961Z,3.57
2023-04-27T11:22:46.426Z,3.73
2023-04-27T11:25:13.364Z,2.23
2023-04-27T11:27:40.517Z,5.13
2023-04-27T11:30:19.170Z,2.27
2023-04-27T11:32:46.037Z,1.97
2023-04-27T11:35:13.741Z,1.83
2023-04-27T11:37:40.594Z,3.03
2023-04-27T11:40:08.713Z,1.43
2023-04-27T11:42:35.729Z,3.53
2023-04-27T11:45:04.104Z,3.10
2023-04-27T11:47:31.083Z,2.90
2023-04-27T11:49:58.512Z,3.33
2023-04-27T11:52:35.136Z,3.00
2023-04-27T11:55:02.424Z,3.67
2023-04-27T11:57:29.870Z,2.43
2023-04-27T11:59:57.058Z,2.10
2023-04-27T12:02:23.996Z,2.30
2023-04-27T12:04:51.094Z,3.40
2023-04-27T12:07:18.121Z,2.63
2023-04-27T12:09:44.823Z,1.93
2023-04-27T12:12:11.778Z,5.33
2023-04-27T12:14:39.032Z,3.10
2023-04-27T12:17:06.167Z,2.93
2023-04-27T12:19:33.898Z,2.50
2023-04-27T12:22:01.753Z,4.53
2023-04-27T12:24:28.937Z,4.53
2023-04-27T12:26:55.658Z,1.20
2023-04-27T12:29:26.046Z,6.93
2023-04-27T12:31:53.363Z,2.13
2023-04-27T12:34:20.293Z,4.73
2023-04-27T12:36:47.288Z,3.23
2023-04-27T12:39:15.740Z,1.77
2023-04-27T12:41:45.649Z,2.70
2023-04-27T12:44:13.341Z,3.47
2023-04-27T12:46:40.467Z,3.43
2023-04-27T12:49:08.135Z,2.57
2023-04-27T12:51:36.261Z,4.10
2023-04-27T12:54:03.226Z,8.43
2023-04-27T12:56:29.918Z,3.67
2023-04-27T12:58:56.628Z,9.43
2023-04-27T13:01:27.589Z,2.00
2023-04-27T13:03:55.130Z,7.83
2023-04-27T13:06:22.880Z,1.37
2023-04-27T13:08:49.821Z,2.80
2023-04-27T13:11:17.064Z,3.13
2023-04-27T13:13:51.806Z,2.73
2023-04-27T13:16:21.735Z,3.87
2023-04-27T13:18:50.556Z,2.93
2023-04-27T13:21:17.632Z,2.37
2023-04-27T13:23:44.362Z,1.90
2023-04-27T13:26:11.614Z,1.27
2023-04-27T13:28:38.908Z,1.23
2023-04-27T13:31:06.123Z,2.80
2023-04-27T13:33:33.235Z,3.17
2023-04-27T13:36:02.342Z,2.40
2023-04-27T13:38:29.088Z,4.33
2023-04-27T13:40:56.585Z,2.47
2023-04-27T13:43:23.278Z,18.40
2023-04-27T13:45:52.597Z,10.40
2023-04-27T13:48:19.520Z,1.37
2023-04-27T13:50:46.874Z,3.53
2023-04-27T13:53:13.548Z,1.33
2023-04-27T13:55:40.185Z,2.67
2023-04-27T13:58:06.962Z,2.77
2023-04-27T14:00:34.802Z,2.27
2023-04-27T14:03:04.593Z,3.57
2023-04-27T14:05:32.279Z,1.93
2023-04-27T14:07:58.859Z,4.87
2023-04-27T14:10:25.531Z,2.77
2023-04-27T14:12:52.378Z,4.67
2023-04-27T14:15:19.295Z,1.83
2023-04-27T14:17:45.984Z,4.10
2023-04-27T14:20:12.839Z,1.87
2023-04-27T14:22:39.786Z,2.87
2023-04-27T14:25:06.659Z,2.87
2023-04-27T14:27:33.399Z,1.93
2023-04-27T14:30:00.154Z,1.53
2023-04-27T14:32:26.867Z,1.13
2023-04-27T14:34:54.022Z,3.23
2023-04-27T14:37:20.939Z,2.33
2023-04-27T14:39:47.567Z,1.73
2023-04-27T14:42:14.332Z,3.27
2023-04-27T14:44:41.081Z,5.00
2023-04-27T14:47:08.092Z,3.00
2023-04-27T14:49:34.777Z,1.77
2023-04-27T14:52:04.239Z,1.57
2023-04-27T14:54:32.758Z,1.80
2023-04-27T14:57:02.374Z,1.03
2023-04-27T14:59:29.189Z,2.17
2023-04-27T15:01:56.053Z,3.97
2023-04-27T15:04:24.269Z,3.80
2023-04-27T15:06:51.867Z,3.37
2023-04-27T15:09:19.072Z,1.63
2023-04-27T15:11:45.866Z,4.10
2023-04-27T15:14:12.632Z,1.70
2023-04-27T15:16:40.786Z,3.13
2023-04-27T15:19:07.570Z,4.93
2023-04-27T15:21:36.725Z,2.93
2023-04-27T15:24:03.494Z,2.83
2023-04-27T15:26:30.397Z,0.80
2023-04-27T15:28:59.517Z,2.53
2023-04-27T15:31:26.891Z,1.93
2023-04-27T15:33:54.816Z,3.63
2023-04-27T15:36:23.059Z,2.57
2023-04-27T15:38:52.050Z,3.43
2023-04-27T15:41:19.181Z,1.43
2023-04-27T15:43:46.103Z,4.03
2023-04-27T15:46:12.896Z,2.80
2023-04-27T15:48:40.795Z,3.13
2023-04-27T15:51:10.160Z,1.03
2023-04-27T15:53:37.430Z,2.97
2023-04-27T15:56:09.009Z,2.53
2023-04-27T15:58:36.069Z,4.67
2023-04-27T16:01:02.926Z,2.73
2023-04-27T16:03:37.797Z,4.07
2023-04-27T16:06:06.682Z,2.03
2023-04-27T16:08:33.602Z,0.90
2023-04-27T16:11:00.522Z,1.07
2023-04-27T16:13:28.654Z,3.13
2023-04-27T16:15:57.492Z,2.30
2023-04-27T16:18:24.211Z,3.20
2023-04-27T16:20:50.961Z,2.33
2023-04-27T16:23:17.840Z,2.03
2023-04-27T16:25:44.564Z,4.43
2023-04-27T16:28:12.000Z,4.07
2023-04-27T16:30:39.155Z,2.33
2023-04-27T16:33:06.244Z,3.23
2023-04-27T16:35:34.148Z,4.63
2023-04-27T16:38:01.140Z,3.17
2023-04-27T16:40:28.863Z,3.03
2023-04-27T16:42:55.695Z,2.77
2023-04-27T16:45:23.202Z,3.67
2023-04-27T16:47:50.103Z,1.93
2023-04-27T16:50:17.195Z,4.50
2023-04-27T16:52:43.897Z,2.10
2023-04-27T16:55:11.899Z,4.13
2023-04-27T16:58:06.426Z,4.13
2023-04-27T17:00:34.196Z,2.10
2023-04-27T17:03:01.581Z,3.17
2023-04-27T17:05:28.626Z,1.93
2023-04-27T17:07:56.240Z,3.30
2023-04-27T17:10:24.075Z,1.67
2023-04-27T17:12:51.379Z,3.07
2023-04-27T17:15:18.688Z,3.50
2023-04-27T17:17:45.826Z,4.53
2023-04-27T17:20:12.844Z,5.67
2023-04-27T17:22:40.409Z,7.90
2023-04-27T17:25:07.970Z,2.83
2023-04-27T17:27:35.207Z,4.57
2023-04-27T17:30:03.486Z,3.30
2023-04-27T17:32:30.388Z,3.70
2023-04-27T17:34:57.632Z,3.37
2023-04-27T17:37:27.667Z,4.97
2023-04-27T17:39:54.633Z,6.03
2023-04-27T17:42:21.564Z,2.87
2023-04-27T17:44:48.391Z,3.57
2023-04-27T17:47:15.265Z,5.70
2023-04-27T17:49:43.069Z,2.97
2023-04-27T17:52:10.224Z,3.13
2023-04-27T17:54:37.612Z,4.47
2023-04-27T17:57:04.356Z,3.70
2023-04-27T17:59:32.284Z,4.07
2023-04-27T18:01:59.012Z,4.47
2023-04-27T18:04:26.861Z,4.77
2023-04-27T18:06:53.557Z,3.30
2023-04-27T18:09:20.279Z,4.87
2023-04-27T18:11:46.899Z,4.07
2023-04-27T18:14:13.602Z,4.57
2023-04-27T18:16:40.520Z,5.67
2023-04-27T18:19:07.361Z,4.90
2023-04-27T18:21:35.079Z,5.10
2023-04-27T18:24:02.187Z,5.90
2023-04-27T18:26:30.669Z,4.27
2023-04-27T18:28:58.790Z,7.13
2023-04-27T18:31:26.003Z,4.77
2023-04-27T18:33:53.049Z,3.13
2023-04-27T18:36:21.251Z,3.30
2023-04-27T18:38:49.004Z,3.40
2023-04-27T18:41:15.953Z,8.30
2023-04-27T18:43:44.091Z,7.50
2023-04-27T18:46:11.558Z,11.57
2023-04-27T18:48:38.897Z,6.57
2023-04-27T18:51:05.888Z,6.33
2023-04-27T18:53:32.694Z,5.83
2023-04-27T18:55:59.473Z,5.43
2023-04-27T18:58:26.813Z,4.83
2023-04-27T19:00:54.838Z,5.90
2023-04-27T19:03:22.245Z,7.60
2023-04-27T19:05:51.722Z,6.27
2023-04-27T19:08:18.652Z,8.90
2023-04-27T19:10:46.300Z,9.93
2023-04-27T19:13:14.874Z,10.60
2023-04-27T19:15:41.926Z,10.10
2023-04-27T19:18:11.606Z,8.70
2023-04-27T19:20:39.699Z,10.67
2023-04-27T19:23:08.001Z,10.63
2023-04-27T19:25:35.216Z,12.33
2023-04-27T19:28:02.102Z,10.67
2023-04-27T19:30:28.989Z,10.87
2023-04-27T19:32:58.641Z,18.30
2023-04-27T19:35:26.624Z,15.83
2023-04-27T19:37:53.502Z,18.83
2023-04-27T19:40:20.649Z,17.87
2023-04-27T19:42:47.641Z,16.17
2023-04-27T19:45:14.310Z,13.93
2023-04-27T19:47:41.435Z,12.63
2023-04-27T19:50:10.556Z,9.40
2023-04-27T19:52:37.319Z,8.33
2023-04-27T19:55:06.638Z,9.13
2023-04-27T19:57:34.188Z,7.83
2023-04-27T20:00:01.501Z,8.47
2023-04-27T20:02:40.831Z,7.33
2023-04-27T20:05:08.568Z,7.70
2023-04-27T20:07:35.994Z,9.10
2023-04-27T20:10:04.013Z,6.73
2023-04-27T20:15:02.939Z,8.23
2023-04-27T20:17:30.253Z,10.03
2023-04-27T20:19:57.141Z,10.27
2023-04-27T20:22:23.828Z,9.93
2023-04-27T20:24:51.251Z,11.83
2023-04-27T20:27:18.066Z,10.60
2023-04-27T20:29:50.767Z,10.50
2023-04-27T20:32:17.655Z,10.53
2023-04-27T20:34:44.279Z,12.23
2023-04-27T20:37:12.635Z,16.10
2023-04-27T20:39:39.408Z,16.03
2023-04-27T20:42:06.888Z,13.37
2023-04-27T20:44:34.125Z,17.87
2023-04-27T20:47:01.850Z,19.17
2023-04-27T20:49:35.031Z,13.37
2023-04-27T20:52:03.873Z,12.50
2023-04-27T20:54:33.033Z,16.63
2023-04-27T20:57:03.823Z,12.03
2023-04-27T20:59:31.532Z,12.47
2023-04-27T21:02:18.228Z,10.83
2023-04-27T21:04:45.300Z,12.60
2023-04-27T21:07:12.029Z,10.13
2023-04-27T21:09:39.126Z,8.87
2023-04-27T21:12:06.174Z,7.97
2023-04-27T21:14:34.573Z,9.87
2023-04-27T21:17:01.254Z,9.67
2023-04-27T21:19:27.910Z,7.80
2023-04-27T21:21:54.952Z,7.67
2023-04-27T21:24:21.858Z,7.87
2023-04-27T21:26:51.667Z,7.60
2023-04-27T21:29:18.289Z,9.47
2023-04-27T21:31:44.928Z,6.70
2023-04-27T21:34:11.620Z,8.77
2023-04-27T21:36:38.854Z,5.70
2023-04-27T21:39:06.046Z,6.13
2023-04-27T21:41:34.368Z,5.93
2023-04-27T21:44:01.178Z,4.27
2023-04-27T21:46:27.860Z,5.83
2023-04-27T21:48:54.519Z,4.33
2023-04-27T21:51:21.131Z,6.63
2023-04-27T21:53:47.819Z,3.20
2023-04-27T21:56:15.868Z,6.73
2023-04-27T21:58:42.533Z,4.67
2023-04-27T22:01:09.178Z,4.53
2023-04-27T22:03:35.982Z,5.27
2023-04-27T22:06:02.919Z,3.97
2023-04-27T22:08:29.569Z,5.87
2023-04-27T22:11:00.247Z,4.57
2023-04-27T22:13:27.054Z,6.23
2023-04-27T22:15:53.668Z,3.33
2023-04-27T22:18:21.115Z,12.30
2023-04-27T22:20:47.889Z,7.80
2023-04-27T22:23:14.623Z,7.60
2023-04-27T22:25:44.377Z,4.97
2023-04-27T22:28:11.102Z,6.60
2023-04-27T22:30:37.907Z,6.07
2023-04-27T22:33:07.930Z,5.67
2023-04-27T22:35:34.976Z,5.63
2023-04-27T22:38:01.606Z,4.10
2023-04-27T22:40:28.321Z,5.17
2023-04-27T22:42:55.218Z,6.87
2023-04-27T22:45:22.806Z,8.77
2023-04-27T22:47:49.662Z,6.93
2023-04-27T22:50:16.598Z,5.87
2023-04-27T22:52:43.197Z,6.70
2023-04-27T22:55:10.235Z,6.60
2023-04-27T22:57:37.040Z,7.53
2023-04-27T23:00:05.518Z,5.73
2023-04-27T23:02:33.252Z,6.13
2023-04-27T23:05:00.153Z,5.93
2023-04-27T23:07:26.769Z,5.27
2023-04-27T23:09:54.892Z,5.50
2023-04-27T23:12:22.120Z,8.20
2023-04-27T23:14:48.701Z,7.17
2023-04-27T23:17:15.541Z,6.13
2023-04-27T23:19:42.156Z,7.17
2023-04-27T23:22:08.752Z,7.93
2023-04-27T23:24:36.210Z,7.30
2023-04-27T23:27:02.797Z,6.53
2023-04-27T23:29:30.356Z,7.93
2023-04-27T23:32:01.344Z,3.93
2023-04-27T23:34:28.091Z,6.87
2023-04-27T23:36:54.683Z,5.13
2023-04-27T23:39:21.416Z,4.73
2023-04-27T23:41:47.980Z,3.70
2023-04-27T23:44:15.007Z,4.53
2023-04-27T23:46:41.837Z,4.93
2023-04-27T23:49:08.458Z,5.53
2023-04-27T23:51:35.048Z,5.93
2023-04-27T23:54:06.242Z,4.53
2023-04-27T23:56:32.873Z,4.90
2023-04-27T23:58:59.415Z,4.30
